Time,TemperatureF,DewpointF,PressureIn,WindDirection,WindDirectionDegrees,WindSpeedMPH,WindSpeedGustMPH,Humidity,HourlyPrecipIn,Conditions,Clouds,dailyrainin,SolarRadiationWatts/m^2,SoftwareType,DateUTC
2013-06-24 00:02:00,69.0,67.0,30.56,SE,132,3.0,7.0,94,0.00,,,0.00,0.000000,,2013-06-24 04:02:00,
2013-06-24 00:33:00,68.0,65.0,30.57,SE,126,5.0,11.0,90,0.00,,,0.00,0.000000,,2013-06-24 04:33:00,
2013-06-24 00:43:00,68.0,65.0,30.57,SE,126,5.0,11.0,90,0.00,,,0.00,0.000000,,2013-06-24 04:43:00,
2013-06-24 00:53:00,68.0,65.0,30.57,SE,126,5.0,11.0,90,0.00,,,0.00,0.000000,,2013-06-24 04:53:00,
2013-06-24 01:02:00,68.0,65.0,30.57,SE,126,5.0,11.0,90,0.00,,,0.00,0.000000,,2013-06-24 05:02:00,
2013-06-24 01:08:00,68.0,66.0,30.57,ESE,113,3.0,13.0,92,0.00,,,0.00,0.000000,,2013-06-24 05:08:00,
2013-06-24 01:39:00,68.0,66.0,30.57,ESE,113,3.0,13.0,92,0.00,,,0.00,0.000000,,2013-06-24 05:39:00,
2013-06-24 01:47:00,68.0,66.0,30.57,ESE,113,3.0,13.0,92,0.00,,,0.00,0.000000,,2013-06-24 05:47:00,
2013-06-24 01:57:00,68.0,66.0,30.57,ESE,113,3.0,13.0,92,0.00,,,0.00,0.000000,,2013-06-24 05:57:00,
2013-06-24 02:40:00,65.0,64.0,30.56,North,10,2.0,4.0,97,0.00,,,0.00,0.000000,,2013-06-24 06:40:00,
2013-06-24 02:47:00,65.0,64.0,30.56,North,10,2.0,4.0,97,0.00,,,0.00,0.000000,,2013-06-24 06:47:00,
2013-06-24 02:57:00,65.0,64.0,30.56,North,10,2.0,4.0,97,0.00,,,0.00,0.000000,,2013-06-24 06:57:00,
2013-06-24 03:37:00,64.0,64.0,30.56,North,351,2.0,3.0,99,0.00,,,0.00,0.000000,,2013-06-24 07:37:00,
2013-06-24 03:49:00,64.0,64.0,30.56,North,351,2.0,3.0,99,0.00,,,0.00,0.000000,,2013-06-24 07:49:00,
2013-06-24 04:04:00,64.0,64.0,30.56,North,351,2.0,3.0,99,0.00,,,0.00,0.000000,,2013-06-24 08:04:00,
2013-06-24 04:37:00,64.0,64.0,30.56,ENE,67,2.0,3.0,100,0.00,,,0.00,0.000000,,2013-06-24 08:37:00,
2013-06-24 04:47:00,64.0,64.0,30.56,ENE,67,2.0,3.0,100,0.00,,,0.00,0.000000,,2013-06-24 08:47:00,
2013-06-24 04:55:00,64.0,64.0,30.56,ENE,67,2.0,3.0,100,0.00,,,0.00,0.000000,,2013-06-24 08:55:00,
2013-06-24 05:07:00,64.0,64.0,30.56,ENE,67,2.0,3.0,100,0.00,,,0.00,0.000000,,2013-06-24 09:07:00,
2013-06-24 05:49:00,62.0,62.0,30.56,NNW,333,1.0,4.0,100,0.00,,,0.00,0.000000,,2013-06-24 09:49:00,
2013-06-24 06:00:00,62.0,62.0,30.56,NNW,333,1.0,4.0,100,0.00,,,0.00,0.000000,,2013-06-24 10:00:00,
2013-06-24 06:38:00,63.0,63.0,30.57,East,90,2.0,3.0,100,0.00,,,0.00,0.000000,,2013-06-24 10:38:00,
2013-06-24 06:51:00,63.0,63.0,30.57,East,90,2.0,3.0,100,0.00,,,0.00,0.000000,,2013-06-24 10:51:00,
2013-06-24 06:58:00,63.0,63.0,30.57,East,90,2.0,3.0,100,0.00,,,0.00,0.000000,,2013-06-24 10:58:00,
2013-06-24 07:35:00,63.0,63.0,30.58,ESE,108,2.0,8.0,100,0.00,,,0.00,7.000000,,2013-06-24 11:35:00,
2013-06-24 07:50:00,63.0,63.0,30.58,ESE,108,2.0,8.0,100,0.00,,,0.00,7.000000,,2013-06-24 11:50:00,
2013-06-24 07:58:00,63.0,63.0,30.58,ESE,108,2.0,8.0,100,0.00,,,0.00,7.000000,,2013-06-24 11:58:00,
2013-06-24 08:06:00,63.0,63.0,30.58,ESE,108,2.0,8.0,100,0.00,,,0.00,7.000000,,2013-06-24 12:06:00,
2013-06-24 08:37:00,66.0,66.0,30.58,SE,129,1.0,4.0,100,0.00,,,0.00,67.000000,,2013-06-24 12:37:00,
2013-06-24 08:49:00,66.0,66.0,30.58,SE,129,1.0,4.0,100,0.00,,,0.00,67.000000,,2013-06-24 12:49:00,
2013-06-24 08:55:00,66.0,66.0,30.58,SE,129,1.0,4.0,100,0.00,,,0.00,67.000000,,2013-06-24 12:55:00,
2013-06-24 09:06:00,66.0,66.0,30.58,SE,129,1.0,4.0,100,0.00,,,0.00,67.000000,,2013-06-24 13:06:00,
2013-06-24 09:46:00,66.0,66.0,30.60,SE,145,3.0,5.0,99,0.00,,,0.00,160.000000,,2013-06-24 13:46:00,
2013-06-24 09:58:00,66.0,66.0,30.60,SE,145,3.0,5.0,99,0.00,,,0.00,160.000000,,2013-06-24 13:58:00,
2013-06-24 10:03:00,66.0,66.0,30.60,SE,145,3.0,5.0,99,0.00,,,0.00,160.000000,,2013-06-24 14:03:00,
2013-06-24 10:38:00,75.0,67.0,30.60,NNW,338,2.0,6.0,76,0.00,,,0.00,412.000000,,2013-06-24 14:38:00,
2013-06-24 10:47:00,75.0,67.0,30.60,NNW,338,2.0,6.0,76,0.00,,,0.00,412.000000,,2013-06-24 14:47:00,
2013-06-24 10:59:00,75.0,67.0,30.60,NNW,338,2.0,6.0,76,0.00,,,0.00,412.000000,,2013-06-24 14:59:00,
2013-06-24 11:05:00,75.0,67.0,30.60,NNW,338,2.0,6.0,76,0.00,,,0.00,412.000000,,2013-06-24 15:05:00,
2013-06-24 11:49:00,78.0,67.0,30.59,SW,227,3.0,7.0,70,0.00,,,0.00,851.000000,,2013-06-24 15:49:00,
2013-06-24 11:57:00,78.0,67.0,30.59,SW,227,3.0,7.0,70,0.00,,,0.00,851.000000,,2013-06-24 15:57:00,
2013-06-24 12:04:00,78.0,67.0,30.59,SW,227,3.0,7.0,70,0.00,,,0.00,851.000000,,2013-06-24 16:04:00,
2013-06-24 12:45:00,82.0,65.0,30.57,NNW,345,1.0,7.0,57,0.00,,,0.00,732.000000,,2013-06-24 16:45:00,
2013-06-24 12:56:00,82.0,65.0,30.57,NNW,345,1.0,7.0,57,0.00,,,0.00,732.000000,,2013-06-24 16:56:00,
2013-06-24 13:06:00,82.0,65.0,30.57,NNW,345,1.0,7.0,57,0.00,,,0.00,732.000000,,2013-06-24 17:06:00,
2013-06-24 13:36:00,86.0,66.0,30.55,NW,326,2.0,8.0,52,0.00,,,0.00,1163.000000,,2013-06-24 17:36:00,
2013-06-24 13:47:00,86.0,66.0,30.55,NW,326,2.0,8.0,52,0.00,,,0.00,1163.000000,,2013-06-24 17:47:00,
2013-06-24 13:57:00,86.0,66.0,30.55,NW,326,2.0,8.0,52,0.00,,,0.00,1163.000000,,2013-06-24 17:57:00,
2013-06-24 14:02:00,86.0,66.0,30.55,NW,326,2.0,8.0,52,0.00,,,0.00,1163.000000,,2013-06-24 18:02:00,
2013-06-24 14:49:00,82.0,66.0,30.52,NE,44,2.0,8.0,58,0.00,,,0.00,768.000000,,2013-06-24 18:49:00,
2013-06-24 14:55:00,82.0,66.0,30.52,NE,44,2.0,8.0,58,0.00,,,0.00,768.000000,,2013-06-24 18:55:00,
2013-06-24 15:07:00,82.0,66.0,30.52,NE,44,2.0,8.0,58,0.00,,,0.00,768.000000,,2013-06-24 19:07:00,
2013-06-24 15:46:00,87.0,64.0,30.48,WNW,301,2.0,7.0,46,0.00,,,0.00,854.000000,,2013-06-24 19:46:00,
2013-06-24 15:57:00,87.0,64.0,30.48,WNW,301,2.0,7.0,46,0.00,,,0.00,854.000000,,2013-06-24 19:57:00,
2013-06-24 16:05:00,87.0,64.0,30.48,WNW,301,2.0,7.0,46,0.00,,,0.00,854.000000,,2013-06-24 20:05:00,
2013-06-24 16:47:00,87.0,65.0,30.47,SW,234,4.0,11.0,49,0.00,,,0.00,1055.000000,,2013-06-24 20:47:00,
2013-06-24 16:56:00,87.0,65.0,30.47,SW,234,4.0,11.0,49,0.00,,,0.00,1055.000000,,2013-06-24 20:56:00,
2013-06-24 17:04:00,87.0,65.0,30.47,SW,234,4.0,11.0,49,0.00,,,0.00,1055.000000,,2013-06-24 21:04:00,
2013-06-24 17:48:00,81.0,71.0,30.49,NE,44,2.0,13.0,71,0.00,,,0.00,330.000000,,2013-06-24 21:48:00,
2013-06-24 17:55:00,81.0,71.0,30.49,NE,44,2.0,13.0,71,0.00,,,0.00,330.000000,,2013-06-24 21:55:00,
2013-06-24 18:06:00,81.0,71.0,30.49,NE,44,2.0,13.0,71,0.00,,,0.00,330.000000,,2013-06-24 22:06:00,
2013-06-24 18:51:00,81.0,69.0,30.47,West,263,2.0,9.0,68,0.00,,,0.00,581.000000,,2013-06-24 22:51:00,
2013-06-24 18:56:00,81.0,69.0,30.47,West,263,2.0,9.0,68,0.00,,,0.00,581.000000,,2013-06-24 22:56:00,
2013-06-24 19:37:00,78.0,70.0,30.47,ENE,64,1.0,4.0,76,0.00,,,0.00,154.000000,,2013-06-24 23:37:00,
2013-06-24 19:46:00,78.0,70.0,30.47,ENE,64,1.0,4.0,76,0.00,,,0.00,154.000000,,2013-06-24 23:46:00,
2013-06-24 19:56:00,78.0,70.0,30.47,ENE,64,1.0,4.0,76,0.00,,,0.00,154.000000,,2013-06-24 23:56:00,
2013-06-24 20:06:00,78.0,70.0,30.47,ENE,64,1.0,4.0,76,0.00,,,0.00,154.000000,,2013-06-25 00:06:00,
2013-06-24 20:36:00,77.0,72.0,30.49,SSE,152,3.0,6.0,84,0.00,,,0.00,94.000000,,2013-06-25 00:36:00,
2013-06-24 20:49:00,77.0,72.0,30.49,SSE,152,3.0,6.0,84,0.00,,,0.00,94.000000,,2013-06-25 00:49:00,
2013-06-24 20:56:00,77.0,72.0,30.49,SSE,152,3.0,6.0,84,0.00,,,0.00,94.000000,,2013-06-25 00:56:00,
2013-06-24 21:04:00,77.0,72.0,30.49,SSE,152,3.0,6.0,84,0.00,,,0.00,94.000000,,2013-06-25 01:04:00,
2013-06-24 21:38:00,72.0,68.0,30.49,East,85,3.0,8.0,88,0.00,,,0.00,44.000000,,2013-06-25 01:38:00,
2013-06-24 21:46:00,72.0,68.0,30.49,East,85,3.0,8.0,88,0.00,,,0.00,44.000000,,2013-06-25 01:46:00,
2013-06-24 21:57:00,72.0,68.0,30.49,East,85,3.0,8.0,88,0.00,,,0.00,44.000000,,2013-06-25 01:57:00,
2013-06-24 22:05:00,72.0,68.0,30.49,East,85,3.0,8.0,88,0.00,,,0.00,44.000000,,2013-06-25 02:05:00,
2013-06-24 22:58:00,73.0,69.0,30.50,SE,133,4.0,6.0,87,0.00,,,0.00,0.000000,,2013-06-25 02:58:00,